Main page
METAR-TAF:

METAR-TAF

Airports :

Shimla Airport

Shimla, India

latitude: 31-04-54N, longitude: 77-04-05E, elevation: 1546 m

METAR: missing

Time: 02:53 (21:23 UTC)

Forecast

The report was made 16 hours and 23 minutes ago, at 05:00 UTC
Forecast valid from 05 at 06 UTC to 05 at 15 UTC
Wind 2 kt from variable directions
Visibility: 5000 m
Few clouds at a height of 1500 ft
Broken clouds at a height of 6000 ft
mist, light rain
Temporary
from 05 at 09 UTC to 05 at 14 UTC
Visibility: 3000 m
Scattered clouds at a height of 3000 ft
Few clouds at a height of 3500 ft, Cumulonimbus.
Overcast at a height of 6000 ft
thunderstorm, light rain

TAF: VISM 050500Z 0506/0515 VRB02KT 5000 BR -RA FEW015 BKN060 TEMPO 0509/0514 3000 -TSRA SCT030 FEW035CB OVC060

Weather observations and forecasts of more than 4000 airports (METAR and TAF reports).

The available stations are represented by yellow and red dots on the map.

Hover mouse over dot to see the name of the station.

Then click to see weather observations and forecasts.

To change the map : click on the green buttons with a black cross to zoom in, on the green button with a dash to zoom out, or on the green arrows for adjacent maps.


METAR-TAF: